createdAt,value
2022-08-16T00:00:46.298Z,23.5
2022-08-16T00:02:43.855Z,23.4
2022-08-16T00:05:06.909Z,23.5
2022-08-16T00:07:04.456Z,23.5
2022-08-16T00:09:01.945Z,23.4
2022-08-16T00:13:05.012Z,23.4
2022-08-16T00:17:12.110Z,23.2
2022-08-16T00:18:57.590Z,23.2
2022-08-16T00:20:55.147Z,23.2
2022-08-16T00:24:58.167Z,23
2022-08-16T00:26:55.695Z,23.2
2022-08-16T00:28:54.506Z,23
2022-08-16T00:30:50.784Z,23
2022-08-16T00:34:53.195Z,23.1
2022-08-16T00:40:50.777Z,23.1
2022-08-16T00:42:44.009Z,23.2
2022-08-16T00:44:41.568Z,23.2
2022-08-16T00:46:53.003Z,23
2022-08-16T00:48:44.121Z,23.1
2022-08-16T00:50:36.453Z,23.1
2022-08-16T00:52:48.002Z,23
2022-08-16T00:56:58.419Z,23
2022-08-16T00:57:58.655Z,23.1
2022-08-16T00:59:35.062Z,23
2022-08-16T01:01:32.623Z,23.1
2022-08-16T01:03:31.845Z,22.8
2022-08-16T01:05:35.682Z,23
2022-08-16T01:07:52.145Z,22.9
2022-08-16T01:09:33.452Z,22.8
2022-08-16T01:11:29.566Z,22.8
2022-08-16T01:13:26.760Z,22.9
2022-08-16T01:15:23.443Z,22.8
2022-08-16T01:17:20.981Z,22.9
2022-08-16T01:21:24.039Z,22.7
2022-08-16T01:23:21.562Z,22.6
2022-08-16T01:27:17.555Z,22.5
2022-08-16T01:29:14.211Z,22.6
2022-08-16T01:31:11.757Z,22.5
2022-08-16T01:35:17.038Z,22.5
2022-08-16T01:37:12.400Z,22.5
2022-08-16T01:39:11.719Z,22.4
2022-08-16T01:41:07.482Z,22.5
2022-08-16T01:43:05.844Z,22.5
2022-08-16T01:45:02.657Z,22.4
2022-08-16T01:47:08.136Z,22.5
2022-08-16T01:49:05.684Z,22.5
2022-08-16T01:51:09.315Z,22.5
2022-08-16T01:52:06.017Z,22.3
2022-08-16T01:54:03.572Z,22.4
2022-08-16T01:56:01.140Z,22.4
2022-08-16T01:57:58.679Z,22.3
2022-08-16T02:00:04.278Z,22.1
2022-08-16T02:02:01.883Z,22.2
2022-08-16T02:04:10.641Z,22.2
2022-08-16T02:05:57.291Z,22.2
2022-08-16T02:09:57.243Z,22
2022-08-16T02:11:53.179Z,22
2022-08-16T02:13:55.099Z,22
2022-08-16T02:15:52.671Z,21.8
2022-08-16T02:17:52.514Z,21.9
2022-08-16T02:23:42.902Z,21.8
2022-08-16T02:25:52.391Z,21.8
2022-08-16T02:27:50.803Z,21.7
2022-08-16T02:29:43.580Z,21.8
2022-08-16T02:32:04.129Z,21.8
2022-08-16T02:33:44.673Z,21.6
2022-08-16T02:35:53.782Z,21.6
2022-08-16T02:37:51.478Z,21.5
2022-08-16T02:39:31.438Z,21.6
2022-08-16T02:41:37.363Z,21.7
2022-08-16T02:43:34.502Z,21.5
2022-08-16T02:45:32.100Z,21.5
2022-08-16T02:48:32.463Z,21.7
2022-08-16T02:50:54.883Z,21.8
2022-08-16T02:52:29.442Z,21.8
2022-08-16T02:54:33.164Z,21.7
2022-08-16T02:56:32.278Z,21.8
2022-08-16T02:58:28.318Z,21.8
2022-08-16T03:00:33.838Z,21.7
2022-08-16T03:02:32.111Z,21.9
2022-08-16T03:04:41.434Z,21.7
2022-08-16T03:06:41.934Z,21.8
2022-08-16T03:08:51.098Z,21.8
2022-08-16T03:16:33.115Z,21.8
2022-08-16T03:18:12.577Z,21.7
2022-08-16T03:20:09.587Z,21.6
2022-08-16T03:24:29.079Z,21.8
2022-08-16T03:26:10.277Z,21.7
2022-08-16T03:28:07.849Z,21.7
2022-08-16T03:30:15.239Z,21.6
2022-08-16T03:32:03.081Z,21.6
2022-08-16T03:34:00.621Z,21.8
2022-08-16T03:36:30.416Z,21.6
2022-08-16T03:38:04.169Z,21.6
2022-08-16T03:40:02.898Z,21.6
2022-08-16T03:42:23.209Z,21.5
2022-08-16T03:44:44.238Z,21.6
2022-08-16T03:46:47.446Z,21.6
2022-08-16T03:48:39.760Z,21.4
2022-08-16T03:50:26.117Z,21.5
2022-08-16T03:56:20.109Z,21.3
2022-08-16T03:58:10.693Z,21.2
2022-08-16T04:02:22.580Z,21.3
2022-08-16T04:04:11.452Z,21.3
2022-08-16T04:10:36.051Z,21.5
2022-08-16T04:12:01.713Z,21.5
2022-08-16T04:14:30.731Z,21.4
2022-08-16T04:16:06.606Z,21.4
2022-08-16T04:18:02.384Z,21.4
2022-08-16T04:20:00.018Z,21.3
2022-08-16T04:23:55.114Z,21.3
2022-08-16T04:25:52.717Z,21.5
2022-08-16T04:27:55.770Z,21.4
2022-08-16T04:30:03.177Z,21.4
2022-08-16T04:33:51.553Z,21.4
2022-08-16T04:36:51.355Z,21.3
2022-08-16T04:44:53.878Z,21.1
2022-08-16T04:47:02.815Z,21.2
2022-08-16T04:48:44.836Z,21
2022-08-16T04:50:43.703Z,21.3
2022-08-16T04:52:39.961Z,21.3
2022-08-16T04:54:37.551Z,21.3
2022-08-16T04:56:46.357Z,21.2
2022-08-16T04:58:45.713Z,21.3
2022-08-16T05:00:38.264Z,21.3
2022-08-16T05:02:42.215Z,21.3
2022-08-16T05:04:33.394Z,21.3
2022-08-16T05:06:44.591Z,21.3
2022-08-16T05:08:30.490Z,21.2
2022-08-16T05:10:34.087Z,21.3
2022-08-16T05:12:31.673Z,21.4
2022-08-16T05:14:45.317Z,21.2
2022-08-16T05:22:19.518Z,21.4
2022-08-16T05:29:24.950Z,21.7
2022-08-16T05:31:22.059Z,21.6
2022-08-16T05:33:19.613Z,21.6
2022-08-16T05:35:17.176Z,21.8
2022-08-16T05:37:24.497Z,21.8
2022-08-16T05:39:20.477Z,21.7
2022-08-16T05:41:17.862Z,21.8
2022-08-16T05:43:15.420Z,21.8
2022-08-16T05:47:10.533Z,21.8
2022-08-16T05:57:06.344Z,21.9
2022-08-16T05:59:03.917Z,22.1
2022-08-16T06:01:01.551Z,22.1
2022-08-16T06:05:04.638Z,22
2022-08-16T06:07:06.851Z,22
2022-08-16T06:08:59.752Z,22
2022-08-16T06:11:09.640Z,21.9
2022-08-16T06:12:56.001Z,21.8
2022-08-16T06:14:52.451Z,21.9
2022-08-16T06:16:50.717Z,21.9
2022-08-16T06:18:55.527Z,21.9
2022-08-16T06:20:55.899Z,22.1
2022-08-16T06:22:58.609Z,22.2
2022-08-16T06:25:52.920Z,22.2
2022-08-16T06:27:57.476Z,22.3
2022-08-16T06:29:49.990Z,22.2
2022-08-16T06:31:51.655Z,22.2
2022-08-16T06:33:49.207Z,22.3
2022-08-16T06:35:46.797Z,22.3
2022-08-16T06:41:40.297Z,22.4
2022-08-16T06:45:43.239Z,22.5
2022-08-16T06:47:54.426Z,22.5
2022-08-16T06:51:46.829Z,22.6
2022-08-16T06:53:32.817Z,22.6
2022-08-16T06:55:34.501Z,22.6
2022-08-16T07:01:43.116Z,22.7
2022-08-16T07:03:32.530Z,22.8
2022-08-16T07:07:23.629Z,23
2022-08-16T07:09:21.203Z,22.8
2022-08-16T07:11:18.746Z,22.9
2022-08-16T07:14:03.702Z,23
2022-08-16T07:15:21.845Z,23
2022-08-16T07:17:19.363Z,23.1
2022-08-16T07:21:54.354Z,23.2
2022-08-16T07:23:41.332Z,23.4
2022-08-16T07:27:44.373Z,23.5
2022-08-16T07:29:41.907Z,23.6
2022-08-16T07:31:39.438Z,23.5
2022-08-16T07:33:53.243Z,23.6
2022-08-16T07:35:34.498Z,23.7
2022-08-16T07:37:32.018Z,23.9
2022-08-16T07:43:32.549Z,24
2022-08-16T07:45:30.008Z,24.2
2022-08-16T07:49:25.075Z,24.3
2022-08-16T07:51:22.587Z,24.3
2022-08-16T07:53:28.783Z,24.4
2022-08-16T07:55:25.595Z,24.5
2022-08-16T07:57:24.093Z,24.6
2022-08-16T07:59:20.612Z,24.5
2022-08-16T08:01:18.181Z,24.6
2022-08-16T08:03:15.633Z,24.6
2022-08-16T08:05:13.133Z,24.8
2022-08-16T08:07:18.639Z,24.8
2022-08-16T08:09:16.157Z,24.9
2022-08-16T08:11:13.631Z,25.1
2022-08-16T08:12:31.472Z,25.1
2022-08-16T08:14:30.046Z,25.3
2022-08-16T08:16:18.460Z,25.4
2022-08-16T08:18:29.475Z,25.4
2022-08-16T08:20:26.084Z,25.4
2022-08-16T08:22:19.297Z,25.3
2022-08-16T08:24:09.618Z,25.6
2022-08-16T08:26:10.029Z,25.6
2022-08-16T08:28:04.371Z,25.8
2022-08-16T08:30:50.138Z,25.8
2022-08-16T08:36:02.334Z,25.7
2022-08-16T08:41:55.056Z,25.8
2022-08-16T08:43:52.270Z,26.1
2022-08-16T08:45:52.788Z,26
2022-08-16T08:49:55.681Z,26.1
2022-08-16T08:51:50.094Z,26.2
2022-08-16T08:53:57.471Z,26.1
2022-08-16T08:55:44.987Z,26.4
2022-08-16T08:57:42.438Z,26.5
2022-08-16T08:59:40.945Z,26.3
2022-08-16T09:01:57.477Z,26.4
2022-08-16T09:03:42.829Z,26.7
2022-08-16T09:06:43.810Z,26.7
2022-08-16T09:08:40.447Z,26.6
2022-08-16T09:12:35.979Z,26.6
2022-08-16T09:14:50.820Z,26.7
2022-08-16T09:18:36.766Z,26.9
2022-08-16T09:20:33.123Z,26.9
2022-08-16T09:22:30.566Z,26.9
2022-08-16T09:24:46.941Z,26.9
2022-08-16T09:26:44.192Z,27
2022-08-16T09:29:13.415Z,27.1
2022-08-16T09:30:33.471Z,27.2
2022-08-16T09:32:28.562Z,27
2022-08-16T09:34:23.200Z,27.2
2022-08-16T09:36:31.887Z,27.2
2022-08-16T09:40:32.335Z,27.3
2022-08-16T09:42:20.911Z,27.4
2022-08-16T09:46:49.182Z,27.4
2022-08-16T09:50:11.824Z,27.7
2022-08-16T09:52:09.521Z,27.4
2022-08-16T09:54:05.526Z,27.4
2022-08-16T09:56:11.392Z,27.6
2022-08-16T10:00:05.760Z,27.7
2022-08-16T10:05:03.346Z,28
2022-08-16T10:09:06.845Z,27.8
2022-08-16T10:11:03.535Z,28
2022-08-16T10:13:00.926Z,28.1
2022-08-16T10:14:58.331Z,28.1
2022-08-16T10:16:59.988Z,28.3
2022-08-16T10:24:59.606Z,28.6
2022-08-16T10:27:16.667Z,28.7
2022-08-16T10:28:50.400Z,28.8
2022-08-16T10:30:45.529Z,28.9
2022-08-16T10:32:42.909Z,28.8
2022-08-16T10:34:40.287Z,28.8
2022-08-16T10:36:45.693Z,28.8
2022-08-16T10:38:43.066Z,29
2022-08-16T10:40:40.648Z,29.2
2022-08-16T10:42:37.814Z,29.2
2022-08-16T10:44:35.195Z,29.1
2022-08-16T10:46:39.684Z,29.5
2022-08-16T10:48:29.920Z,29.4
2022-08-16T10:50:35.300Z,29.4
2022-08-16T10:54:30.628Z,29.5
2022-08-16T10:56:55.828Z,29.6
2022-08-16T10:58:49.965Z,29.6
2022-08-16T11:00:47.307Z,29.8
2022-08-16T11:08:46.486Z,30.2
2022-08-16T11:11:01.587Z,30
2022-08-16T11:12:40.921Z,30.1
2022-08-16T11:14:38.319Z,30
2022-08-16T11:17:10.683Z,30.2
2022-08-16T11:19:04.741Z,30.2
2022-08-16T11:20:41.113Z,30.4
2022-08-16T11:22:47.737Z,30.6
2022-08-16T11:26:30.268Z,31
2022-08-16T11:30:37.731Z,31.5
2022-08-16T11:32:32.236Z,31.4
2022-08-16T11:36:24.955Z,31.7
2022-08-16T11:40:19.541Z,32.1
2022-08-16T11:42:23.233Z,32.1
2022-08-16T11:44:52.806Z,32.1
2022-08-16T11:49:18.373Z,31.4
2022-08-16T11:51:15.531Z,31.4
2022-08-16T11:53:12.697Z,31.4
2022-08-16T11:55:10.014Z,31.1
2022-08-16T11:59:12.860Z,31.6
2022-08-16T12:01:10.771Z,31.8
2022-08-16T12:03:06.575Z,32
2022-08-16T12:07:00.882Z,32.3
2022-08-16T12:11:03.257Z,32.6
2022-08-16T12:13:02.821Z,32.8
2022-08-16T12:14:59.363Z,32.7
2022-08-16T12:18:51.728Z,33
2022-08-16T12:20:48.820Z,33.2
2022-08-16T12:22:45.929Z,33.2
2022-08-16T12:24:51.892Z,33.1
2022-08-16T12:26:48.182Z,33.3
2022-08-16T12:28:54.734Z,33.6
2022-08-16T12:30:42.470Z,33.6
2022-08-16T12:38:46.723Z,34.3
2022-08-16T12:40:35.617Z,34.4
2022-08-16T12:45:32.069Z,34
2022-08-16T12:47:29.021Z,33.8
2022-08-16T12:49:25.996Z,33.9
2022-08-16T12:53:31.815Z,33.6
2022-08-16T12:55:24.982Z,33.7
2022-08-16T12:57:21.943Z,33.5
2022-08-16T12:59:20.476Z,33.8
2022-08-16T13:01:15.945Z,33.9
2022-08-16T13:05:17.898Z,33.5
2022-08-16T13:11:08.765Z,32.3
2022-08-16T13:15:02.772Z,31.9
2022-08-16T13:16:59.782Z,31.8
2022-08-16T13:19:04.880Z,31.5
2022-08-16T13:21:01.935Z,31.7
2022-08-16T13:22:59.026Z,31.7
2022-08-16T13:24:56.098Z,31.8
2022-08-16T13:26:53.436Z,31.8
2022-08-16T13:28:50.275Z,31.9
2022-08-16T13:30:47.376Z,31.9
2022-08-16T13:32:52.563Z,31.9
2022-08-16T13:34:49.925Z,32.1
2022-08-16T13:36:49.560Z,31.8
2022-08-16T13:37:49.557Z,32
2022-08-16T13:39:46.559Z,32
2022-08-16T13:41:43.626Z,32.4
2022-08-16T13:43:40.745Z,32.7
2022-08-16T13:45:45.931Z,32.8
2022-08-16T13:47:43.066Z,32.9
2022-08-16T13:49:40.169Z,33.2
2022-08-16T13:51:39.206Z,32.9
2022-08-16T13:53:34.382Z,32.9
2022-08-16T13:57:52.603Z,33.5
2022-08-16T13:59:34.537Z,34.2
2022-08-16T14:03:27.846Z,34.3
2022-08-16T14:05:24.889Z,35.1
2022-08-16T14:07:24.654Z,35.9
2022-08-16T14:09:20.142Z,35.6
2022-08-16T14:11:15.938Z,35.4
2022-08-16T14:21:08.898Z,34
2022-08-16T14:23:05.877Z,34.5
2022-08-16T14:25:02.944Z,35.4
2022-08-16T14:27:07.894Z,34.6
2022-08-16T14:29:04.932Z,34.3
2022-08-16T14:31:02.174Z,33.5
2022-08-16T14:35:36.764Z,32.3
2022-08-16T14:37:22.603Z,32.3
2022-08-16T14:39:27.501Z,32.2
2022-08-16T14:41:24.427Z,32.5
2022-08-16T14:43:21.471Z,32.1
2022-08-16T14:45:18.536Z,32.2
2022-08-16T14:47:15.592Z,32.4
2022-08-16T14:49:12.663Z,32.6
2022-08-16T14:51:09.731Z,32.6
2022-08-16T14:53:15.031Z,32.3
2022-08-16T14:55:12.012Z,32.3
2022-08-16T14:57:09.083Z,32
2022-08-16T14:59:06.208Z,32
2022-08-16T15:01:03.403Z,32.1
2022-08-16T15:03:00.438Z,32
2022-08-16T15:04:57.560Z,32.3
2022-08-16T15:08:59.901Z,32.4
2022-08-16T15:10:57.048Z,32.3
2022-08-16T15:12:54.184Z,32.5
2022-08-16T15:14:51.338Z,32.2
2022-08-16T15:16:48.504Z,32.1
2022-08-16T15:18:46.728Z,32
2022-08-16T15:20:50.878Z,31.7
2022-08-16T15:22:48.049Z,31.7
2022-08-16T15:24:45.243Z,31.8
2022-08-16T15:27:45.021Z,31.6
2022-08-16T15:29:42.191Z,31.5
2022-08-16T15:31:39.361Z,31.4
2022-08-16T15:33:48.596Z,31.5
2022-08-16T15:35:41.818Z,31.5
2022-08-16T15:37:42.477Z,31.4
2022-08-16T15:39:39.722Z,31.3
2022-08-16T15:41:33.430Z,31.4
2022-08-16T15:43:39.161Z,31.2
2022-08-16T15:45:27.864Z,31.1
2022-08-16T15:47:33.116Z,30.9
2022-08-16T15:49:34.382Z,30.7
2022-08-16T15:51:27.585Z,30.9
2022-08-16T15:55:29.710Z,30.8
2022-08-16T15:57:19.316Z,30.9
2022-08-16T15:59:16.578Z,30.9
2022-08-16T16:01:21.926Z,31.1
2022-08-16T16:03:19.077Z,31.1
2022-08-16T16:05:16.352Z,31
2022-08-16T16:07:13.576Z,31
2022-08-16T16:09:10.835Z,31
2022-08-16T16:13:05.320Z,30.9
2022-08-16T16:15:10.611Z,30.4
2022-08-16T16:17:07.858Z,30.4
2022-08-16T16:20:13.782Z,30.1
2022-08-16T16:25:59.543Z,29.9
2022-08-16T16:30:02.312Z,29.7
2022-08-16T16:32:00.120Z,29.7
2022-08-16T16:33:56.659Z,29.5
2022-08-16T16:37:51.288Z,29.5
2022-08-16T16:39:48.603Z,29.4
2022-08-16T16:41:53.895Z,29.4
2022-08-16T16:43:53.460Z,29.4
2022-08-16T16:45:48.448Z,29.1
2022-08-16T16:47:47.340Z,28.9
2022-08-16T16:49:44.614Z,29
2022-08-16T16:51:44.629Z,29.2
2022-08-16T16:53:39.240Z,28.9
2022-08-16T16:55:44.584Z,28.9
2022-08-16T16:57:41.888Z,29
2022-08-16T16:59:39.227Z,28.9
2022-08-16T17:01:56.757Z,29.1
2022-08-16T17:03:33.876Z,29.2
2022-08-16T17:05:32.427Z,29.1
2022-08-16T17:07:28.552Z,29
2022-08-16T17:09:34.915Z,29
2022-08-16T17:11:31.242Z,29.1
2022-08-16T17:13:28.579Z,29.1
2022-08-16T17:16:32.803Z,29
2022-08-16T17:19:15.098Z,29.1
2022-08-16T17:20:25.242Z,29.3
2022-08-16T17:22:32.961Z,29.1
2022-08-16T17:24:26.324Z,29.2
2022-08-16T17:26:29.608Z,29
2022-08-16T17:28:58.327Z,29.1
2022-08-16T17:30:17.986Z,29
2022-08-16T17:32:46.761Z,28.7
2022-08-16T17:34:30.392Z,28.7
2022-08-16T17:36:36.568Z,28.7
2022-08-16T17:38:15.314Z,28.5
2022-08-16T17:40:25.835Z,28.6
2022-08-16T17:42:10.015Z,28.6
2022-08-16T17:44:07.375Z,28.4
2022-08-16T17:46:04.720Z,28.5
2022-08-16T17:48:02.096Z,28.5
2022-08-16T17:50:07.477Z,28.4
2022-08-16T17:52:04.861Z,28.3
2022-08-16T17:54:02.204Z,28.3
2022-08-16T17:55:59.556Z,28.2
2022-08-16T17:57:56.956Z,28
2022-08-16T18:01:51.706Z,27.9
2022-08-16T18:04:07.121Z,27.8
2022-08-16T18:07:51.808Z,27.8
2022-08-16T18:10:15.045Z,27.8
2022-08-16T18:12:19.792Z,27.7
2022-08-16T18:14:09.816Z,27.6
2022-08-16T18:16:15.221Z,27.6
2022-08-16T18:18:12.589Z,27.5
2022-08-16T18:20:09.983Z,27.4
2022-08-16T18:22:07.385Z,27.5
2022-08-16T18:24:04.817Z,27.5
2022-08-16T18:26:02.187Z,27.4
2022-08-16T18:30:05.015Z,27.2
2022-08-16T18:32:02.430Z,27.2
2022-08-16T18:33:59.803Z,27.3
2022-08-16T18:35:57.886Z,27.3
2022-08-16T18:39:52.110Z,27.2
2022-08-16T18:41:49.425Z,27.1
2022-08-16T18:44:23.718Z,26.9
2022-08-16T18:45:52.270Z,26.7
2022-08-16T18:47:49.697Z,26.6
2022-08-16T18:49:47.126Z,26.6
2022-08-16T18:55:45.241Z,26.7
2022-08-16T18:57:44.836Z,26.5
2022-08-16T18:59:42.265Z,26.5
2022-08-16T19:01:39.783Z,26.6
2022-08-16T19:02:57.281Z,26.4
2022-08-16T19:06:37.263Z,26.5
2022-08-16T19:10:40.116Z,26.3
2022-08-16T19:12:42.143Z,26.3
2022-08-16T19:14:35.064Z,26.3
2022-08-16T19:16:32.491Z,26.3
2022-08-16T19:20:27.406Z,26.1
2022-08-16T19:26:27.741Z,26
2022-08-16T19:30:22.658Z,25.9
2022-08-16T19:32:20.103Z,25.8
2022-08-16T19:34:17.551Z,25.8
2022-08-16T19:36:17.092Z,25.7
2022-08-16T19:46:10.321Z,25.7
2022-08-16T19:48:07.758Z,25.6
2022-08-16T19:50:05.216Z,25.6
2022-08-16T19:52:10.684Z,25.4
2022-08-16T19:54:08.160Z,25.5
2022-08-16T19:56:05.642Z,25.3
2022-08-16T19:57:08.341Z,25.4
2022-08-16T20:05:06.221Z,25.2
2022-08-16T20:07:03.700Z,25.2
2022-08-16T20:09:01.227Z,25.2
2022-08-16T20:10:58.686Z,25.2
2022-08-16T20:13:02.038Z,25.1
2022-08-16T20:14:53.648Z,25.1
2022-08-16T20:16:51.135Z,24.9
2022-08-16T20:18:56.599Z,25
2022-08-16T20:22:53.778Z,24.8
2022-08-16T20:24:49.067Z,24.8
2022-08-16T20:26:46.559Z,24.8
2022-08-16T20:28:53.537Z,24.8
2022-08-16T20:30:41.564Z,24.8
2022-08-16T20:32:47.190Z,24.8
2022-08-16T20:36:42.042Z,24.7
2022-08-16T20:38:39.557Z,24.8
2022-08-16T20:40:37.057Z,24.8
2022-08-16T20:44:32.041Z,24.8
2022-08-16T20:46:39.799Z,24.7
2022-08-16T20:48:34.995Z,24.6
2022-08-16T20:51:46.544Z,24.6
2022-08-16T20:53:32.731Z,24.7
2022-08-16T20:55:30.220Z,24.6
2022-08-16T20:59:33.193Z,24.3
2022-08-16T21:01:45.719Z,24.5
2022-08-16T21:03:28.179Z,24.4
2022-08-16T21:05:25.709Z,24.5
2022-08-16T21:07:23.214Z,24.3
2022-08-16T21:09:20.695Z,24.4
2022-08-16T21:11:18.209Z,24.4
2022-08-16T21:15:21.178Z,24.5
2022-08-16T21:17:18.700Z,24.4
2022-08-16T21:19:16.200Z,24.3
2022-08-16T21:25:08.722Z,24.2
2022-08-16T21:29:14.230Z,24.2
2022-08-16T21:33:06.718Z,23.9
2022-08-16T21:35:04.221Z,24
2022-08-16T21:37:01.743Z,24
2022-08-16T21:38:59.274Z,24.1
2022-08-16T21:43:02.278Z,23.9
2022-08-16T21:44:59.819Z,23.8
2022-08-16T21:49:20.067Z,23.8
2022-08-16T21:51:17.602Z,23.8
2022-08-16T21:53:23.131Z,23.9
2022-08-16T21:55:20.650Z,23.9
2022-08-16T21:57:18.158Z,23.8
2022-08-16T21:59:15.682Z,23.9
2022-08-16T22:01:13.265Z,23.8
2022-08-16T22:03:10.735Z,23.8
2022-08-16T22:05:08.245Z,23.7
2022-08-16T22:09:11.262Z,23.7
2022-08-16T22:11:09.325Z,23.7
2022-08-16T22:13:06.299Z,23.7
2022-08-16T22:24:59.398Z,23.5
2022-08-16T22:26:57.110Z,23.5
2022-08-16T22:28:56.036Z,23.4
2022-08-16T22:30:53.515Z,23.5
2022-08-16T22:32:51.195Z,23.5
2022-08-16T22:34:56.534Z,23.2
2022-08-16T22:36:54.064Z,23.3
2022-08-16T22:38:56.475Z,23.4
2022-08-16T22:41:51.919Z,23.2
2022-08-16T22:43:49.400Z,23.2
2022-08-16T22:45:46.906Z,23.3
2022-08-16T22:47:52.415Z,23.3
2022-08-16T22:49:49.944Z,23.3
2022-08-16T22:51:47.473Z,23.3
2022-08-16T22:59:37.550Z,23.5
2022-08-16T23:01:43.100Z,23.3
2022-08-16T23:03:40.611Z,23.2
2022-08-16T23:05:38.125Z,23.2
2022-08-16T23:13:28.245Z,23.4
2022-08-16T23:17:31.276Z,23.3
2022-08-16T23:19:28.807Z,23.4
2022-08-16T23:21:26.632Z,23.3
2022-08-16T23:23:24.183Z,23.3
2022-08-16T23:25:21.435Z,23.4
2022-08-16T23:27:18.947Z,23.5
2022-08-16T23:29:26.272Z,23.3
2022-08-16T23:31:21.985Z,23.3
2022-08-16T23:33:19.509Z,23.4
2022-08-16T23:34:22.259Z,23.3
2022-08-16T23:36:19.806Z,23.2
2022-08-16T23:38:37.992Z,23.3
2022-08-16T23:44:56.665Z,23.3
2022-08-16T23:46:15.413Z,23.3
2022-08-16T23:50:10.479Z,23.2
2022-08-16T23:52:08.017Z,23.1
2022-08-16T23:54:05.536Z,23.2
2022-08-16T23:56:11.027Z,23.1
2022-08-16T23:58:08.577Z,23.2
